sensor_id;sensor_type;location;lat;lon;timestamp;P1;durP1;ratioP1;P2;durP2;ratioP2
71464;SDS011;59274;49.874;9.154;2023-07-20T00:00:34;9.55;;;2.55;;
71464;SDS011;59274;49.874;9.154;2023-07-20T00:03:13;4.77;;;2.60;;
71464;SDS011;59274;49.874;9.154;2023-07-20T00:05:44;6.72;;;2.60;;
71464;SDS011;59274;49.874;9.154;2023-07-20T00:08:10;5.93;;;2.60;;
71464;SDS011;59274;49.874;9.154;2023-07-20T00:10:36;8.93;;;3.08;;
71464;SDS011;59274;49.874;9.154;2023-07-20T00:13:01;6.00;;;2.70;;
71464;SDS011;59274;49.874;9.154;2023-07-20T00:15:27;8.27;;;2.65;;
71464;SDS011;59274;49.874;9.154;2023-07-20T00:17:53;5.00;;;2.80;;
71464;SDS011;59274;49.874;9.154;2023-07-20T00:20:18;6.93;;;2.80;;
71464;SDS011;59274;49.874;9.154;2023-07-20T00:22:44;8.63;;;2.67;;
71464;SDS011;59274;49.874;9.154;2023-07-20T00:25:09;6.73;;;2.50;;
71464;SDS011;59274;49.874;9.154;2023-07-20T00:27:36;7.72;;;2.28;;
71464;SDS011;59274;49.874;9.154;2023-07-20T00:30:03;5.83;;;2.57;;
71464;SDS011;59274;49.874;9.154;2023-07-20T00:32:29;4.45;;;2.20;;
71464;SDS011;59274;49.874;9.154;2023-07-20T00:34:54;6.67;;;2.43;;
71464;SDS011;59274;49.874;9.154;2023-07-20T00:37:20;6.72;;;2.70;;
71464;SDS011;59274;49.874;9.154;2023-07-20T00:39:45;6.63;;;2.80;;
71464;SDS011;59274;49.874;9.154;2023-07-20T00:42:11;7.60;;;2.90;;
71464;SDS011;59274;49.874;9.154;2023-07-20T00:44:36;8.97;;;3.37;;
71464;SDS011;59274;49.874;9.154;2023-07-20T00:47:02;7.22;;;2.83;;
71464;SDS011;59274;49.874;9.154;2023-07-20T00:49:27;6.30;;;3.00;;
71464;SDS011;59274;49.874;9.154;2023-07-20T00:51:53;5.60;;;2.87;;
71464;SDS011;59274;49.874;9.154;2023-07-20T00:54:18;5.97;;;2.70;;
71464;SDS011;59274;49.874;9.154;2023-07-20T00:56:43;5.93;;;2.65;;
71464;SDS011;59274;49.874;9.154;2023-07-20T00:59:09;6.07;;;3.15;;
71464;SDS011;59274;49.874;9.154;2023-07-20T01:01:35;5.50;;;2.88;;
71464;SDS011;59274;49.874;9.154;2023-07-20T01:04:01;7.93;;;3.43;;
71464;SDS011;59274;49.874;9.154;2023-07-20T01:09:13;5.93;;;2.97;;
71464;SDS011;59274;49.874;9.154;2023-07-20T01:11:59;6.97;;;3.10;;
71464;SDS011;59274;49.874;9.154;2023-07-20T01:14:28;6.07;;;3.20;;
71464;SDS011;59274;49.874;9.154;2023-07-20T01:16:54;5.33;;;2.70;;
71464;SDS011;59274;49.874;9.154;2023-07-20T01:19:20;5.85;;;2.85;;
71464;SDS011;59274;49.874;9.154;2023-07-20T01:22:02;6.03;;;2.67;;
71464;SDS011;59274;49.874;9.154;2023-07-20T01:32:42;5.32;;;2.30;;
71464;SDS011;59274;49.874;9.154;2023-07-20T01:35:10;5.22;;;2.50;;
71464;SDS011;59274;49.874;9.154;2023-07-20T01:37:40;6.20;;;2.55;;
71464;SDS011;59274;49.874;9.154;2023-07-20T01:40:07;6.53;;;2.40;;
71464;SDS011;59274;49.874;9.154;2023-07-20T01:42:34;8.87;;;3.00;;
71464;SDS011;59274;49.874;9.154;2023-07-20T01:45:00;6.47;;;2.60;;
71464;SDS011;59274;49.874;9.154;2023-07-20T01:47:25;5.67;;;2.30;;
71464;SDS011;59274;49.874;9.154;2023-07-20T01:49:50;7.93;;;2.50;;
71464;SDS011;59274;49.874;9.154;2023-07-20T01:52:16;5.70;;;2.33;;
71464;SDS011;59274;49.874;9.154;2023-07-20T01:54:41;6.17;;;2.63;;
71464;SDS011;59274;49.874;9.154;2023-07-20T01:57:07;8.23;;;2.65;;
71464;SDS011;59274;49.874;9.154;2023-07-20T01:59:32;8.47;;;2.47;;
71464;SDS011;59274;49.874;9.154;2023-07-20T02:01:57;5.13;;;2.10;;
71464;SDS011;59274;49.874;9.154;2023-07-20T02:04:23;7.30;;;2.70;;
71464;SDS011;59274;49.874;9.154;2023-07-20T02:06:48;5.97;;;2.30;;
71464;SDS011;59274;49.874;9.154;2023-07-20T02:09:14;5.93;;;2.65;;
71464;SDS011;59274;49.874;9.154;2023-07-20T02:11:39;6.10;;;2.60;;
71464;SDS011;59274;49.874;9.154;2023-07-20T02:14:04;5.83;;;2.30;;
71464;SDS011;59274;49.874;9.154;2023-07-20T02:16:30;4.73;;;2.50;;
71464;SDS011;59274;49.874;9.154;2023-07-20T02:18:55;5.28;;;2.25;;
71464;SDS011;59274;49.874;9.154;2023-07-20T02:21:22;6.17;;;2.30;;
71464;SDS011;59274;49.874;9.154;2023-07-20T02:23:48;5.22;;;2.25;;
71464;SDS011;59274;49.874;9.154;2023-07-20T02:26:13;8.20;;;3.03;;
71464;SDS011;59274;49.874;9.154;2023-07-20T02:28:39;6.17;;;2.50;;
71464;SDS011;59274;49.874;9.154;2023-07-20T02:31:04;6.60;;;2.90;;
71464;SDS011;59274;49.874;9.154;2023-07-20T02:33:32;5.47;;;2.38;;
71464;SDS011;59274;49.874;9.154;2023-07-20T02:35:58;5.20;;;2.60;;
71464;SDS011;59274;49.874;9.154;2023-07-20T02:38:23;4.97;;;2.43;;
71464;SDS011;59274;49.874;9.154;2023-07-20T02:40:52;6.55;;;2.40;;
71464;SDS011;59274;49.874;9.154;2023-07-20T02:43:17;5.30;;;2.30;;
71464;SDS011;59274;49.874;9.154;2023-07-20T02:45:43;6.63;;;2.20;;
71464;SDS011;59274;49.874;9.154;2023-07-20T02:48:08;4.30;;;2.07;;
71464;SDS011;59274;49.874;9.154;2023-07-20T02:50:34;5.28;;;2.30;;
71464;SDS011;59274;49.874;9.154;2023-07-20T02:53:00;7.70;;;2.07;;
71464;SDS011;59274;49.874;9.154;2023-07-20T02:55:26;5.72;;;2.20;;
71464;SDS011;59274;49.874;9.154;2023-07-20T02:57:51;5.17;;;2.37;;
71464;SDS011;59274;49.874;9.154;2023-07-20T03:00:17;5.57;;;2.25;;
71464;SDS011;59274;49.874;9.154;2023-07-20T03:02:44;5.50;;;2.60;;
71464;SDS011;59274;49.874;9.154;2023-07-20T03:05:12;4.57;;;2.30;;
71464;SDS011;59274;49.874;9.154;2023-07-20T03:07:38;5.50;;;2.53;;
71464;SDS011;59274;49.874;9.154;2023-07-20T03:10:04;6.13;;;2.90;;
71464;SDS011;59274;49.874;9.154;2023-07-20T03:12:32;6.15;;;2.72;;
71464;SDS011;59274;49.874;9.154;2023-07-20T03:14:59;6.35;;;2.60;;
71464;SDS011;59274;49.874;9.154;2023-07-20T03:17:24;9.27;;;2.67;;
71464;SDS011;59274;49.874;9.154;2023-07-20T03:19:50;4.93;;;2.20;;
71464;SDS011;59274;49.874;9.154;2023-07-20T03:22:15;6.05;;;2.58;;
71464;SDS011;59274;49.874;9.154;2023-07-20T03:24:41;5.80;;;2.58;;
71464;SDS011;59274;49.874;9.154;2023-07-20T03:27:06;5.77;;;2.70;;
71464;SDS011;59274;49.874;9.154;2023-07-20T03:29:32;6.63;;;2.30;;
71464;SDS011;59274;49.874;9.154;2023-07-20T03:31:58;5.10;;;2.40;;
71464;SDS011;59274;49.874;9.154;2023-07-20T03:34:24;9.40;;;2.80;;
71464;SDS011;59274;49.874;9.154;2023-07-20T03:36:50;5.63;;;2.50;;
71464;SDS011;59274;49.874;9.154;2023-07-20T03:39:15;5.67;;;2.77;;
71464;SDS011;59274;49.874;9.154;2023-07-20T03:41:41;8.32;;;2.97;;
71464;SDS011;59274;49.874;9.154;2023-07-20T03:44:06;6.40;;;2.70;;
71464;SDS011;59274;49.874;9.154;2023-07-20T03:46:31;7.37;;;3.27;;
71464;SDS011;59274;49.874;9.154;2023-07-20T03:48:59;6.90;;;2.75;;
71464;SDS011;59274;49.874;9.154;2023-07-20T03:51:25;7.13;;;3.00;;
71464;SDS011;59274;49.874;9.154;2023-07-20T03:53:51;7.88;;;3.00;;
71464;SDS011;59274;49.874;9.154;2023-07-20T03:56:16;5.90;;;2.63;;
71464;SDS011;59274;49.874;9.154;2023-07-20T03:58:42;6.13;;;2.70;;
71464;SDS011;59274;49.874;9.154;2023-07-20T04:01:07;6.70;;;2.60;;
71464;SDS011;59274;49.874;9.154;2023-07-20T04:03:34;8.07;;;2.78;;
71464;SDS011;59274;49.874;9.154;2023-07-20T04:06:00;6.70;;;2.80;;
71464;SDS011;59274;49.874;9.154;2023-07-20T04:08:26;11.60;;;2.67;;
71464;SDS011;59274;49.874;9.154;2023-07-20T04:10:52;9.15;;;3.35;;
71464;SDS011;59274;49.874;9.154;2023-07-20T04:13:17;7.05;;;3.03;;
71464;SDS011;59274;49.874;9.154;2023-07-20T04:15:43;6.40;;;3.00;;
71464;SDS011;59274;49.874;9.154;2023-07-20T04:18:09;10.07;;;2.97;;
71464;SDS011;59274;49.874;9.154;2023-07-20T04:20:34;7.13;;;3.07;;
71464;SDS011;59274;49.874;9.154;2023-07-20T04:23:00;6.57;;;2.75;;
71464;SDS011;59274;49.874;9.154;2023-07-20T04:25:25;6.57;;;2.87;;
71464;SDS011;59274;49.874;9.154;2023-07-20T04:27:51;5.80;;;2.53;;
71464;SDS011;59274;49.874;9.154;2023-07-20T04:30:20;13.13;;;2.88;;
71464;SDS011;59274;49.874;9.154;2023-07-20T04:32:47;6.65;;;2.58;;
71464;SDS011;59274;49.874;9.154;2023-07-20T04:35:17;7.93;;;2.50;;
71464;SDS011;59274;49.874;9.154;2023-07-20T04:38:02;5.75;;;2.63;;
71464;SDS011;59274;49.874;9.154;2023-07-20T04:40:28;7.77;;;2.80;;
71464;SDS011;59274;49.874;9.154;2023-07-20T04:42:53;7.77;;;3.03;;
71464;SDS011;59274;49.874;9.154;2023-07-20T04:45:19;6.38;;;2.70;;
71464;SDS011;59274;49.874;9.154;2023-07-20T04:47:44;6.57;;;2.63;;
71464;SDS011;59274;49.874;9.154;2023-07-20T04:50:09;8.37;;;2.80;;
71464;SDS011;59274;49.874;9.154;2023-07-20T04:52:35;6.33;;;2.03;;
71464;SDS011;59274;49.874;9.154;2023-07-20T04:55:00;5.70;;;2.40;;
71464;SDS011;59274;49.874;9.154;2023-07-20T04:57:26;7.00;;;2.63;;
71464;SDS011;59274;49.874;9.154;2023-07-20T04:59:51;6.55;;;2.70;;
71464;SDS011;59274;49.874;9.154;2023-07-20T05:02:17;9.00;;;2.63;;
71464;SDS011;59274;49.874;9.154;2023-07-20T05:04:42;7.07;;;2.33;;
71464;SDS011;59274;49.874;9.154;2023-07-20T05:07:08;5.53;;;2.40;;
71464;SDS011;59274;49.874;9.154;2023-07-20T05:09:33;5.50;;;2.63;;
71464;SDS011;59274;49.874;9.154;2023-07-20T05:11:59;5.37;;;2.40;;
71464;SDS011;59274;49.874;9.154;2023-07-20T05:14:24;6.97;;;2.50;;
71464;SDS011;59274;49.874;9.154;2023-07-20T05:16:50;6.10;;;2.47;;
71464;SDS011;59274;49.874;9.154;2023-07-20T05:19:15;6.37;;;2.70;;
71464;SDS011;59274;49.874;9.154;2023-07-20T05:21:40;5.30;;;2.50;;
71464;SDS011;59274;49.874;9.154;2023-07-20T05:24:06;7.53;;;2.78;;
71464;SDS011;59274;49.874;9.154;2023-07-20T05:26:32;7.80;;;2.72;;
71464;SDS011;59274;49.874;9.154;2023-07-20T05:28:59;6.07;;;2.45;;
71464;SDS011;59274;49.874;9.154;2023-07-20T05:31:24;7.23;;;2.40;;
71464;SDS011;59274;49.874;9.154;2023-07-20T05:33:51;5.35;;;2.28;;
71464;SDS011;59274;49.874;9.154;2023-07-20T05:36:16;7.57;;;3.13;;
71464;SDS011;59274;49.874;9.154;2023-07-20T05:38:42;7.23;;;3.27;;
71464;SDS011;59274;49.874;9.154;2023-07-20T05:41:07;10.48;;;3.47;;
71464;SDS011;59274;49.874;9.154;2023-07-20T05:43:35;5.97;;;2.63;;
71464;SDS011;59274;49.874;9.154;2023-07-20T05:46:00;6.63;;;2.97;;
71464;SDS011;59274;49.874;9.154;2023-07-20T05:48:26;6.50;;;2.97;;
71464;SDS011;59274;49.874;9.154;2023-07-20T05:50:51;7.17;;;3.13;;
71464;SDS011;59274;49.874;9.154;2023-07-20T05:53:17;8.23;;;3.65;;
71464;SDS011;59274;49.874;9.154;2023-07-20T05:55:42;9.50;;;3.65;;
71464;SDS011;59274;49.874;9.154;2023-07-20T05:58:08;7.57;;;3.40;;
71464;SDS011;59274;49.874;9.154;2023-07-20T06:00:33;5.77;;;2.23;;
71464;SDS011;59274;49.874;9.154;2023-07-20T06:02:58;5.07;;;2.10;;
71464;SDS011;59274;49.874;9.154;2023-07-20T06:05:24;6.07;;;1.80;;
71464;SDS011;59274;49.874;9.154;2023-07-20T06:07:50;6.88;;;1.90;;
71464;SDS011;59274;49.874;9.154;2023-07-20T06:10:15;3.57;;;1.33;;
71464;SDS011;59274;49.874;9.154;2023-07-20T06:12:41;6.43;;;1.70;;
71464;SDS011;59274;49.874;9.154;2023-07-20T06:15:12;5.40;;;1.50;;
71464;SDS011;59274;49.874;9.154;2023-07-20T06:17:50;5.18;;;1.77;;
71464;SDS011;59274;49.874;9.154;2023-07-20T06:20:15;7.17;;;2.20;;
71464;SDS011;59274;49.874;9.154;2023-07-20T06:22:41;3.77;;;1.47;;
71464;SDS011;59274;49.874;9.154;2023-07-20T06:25:06;5.97;;;1.60;;
71464;SDS011;59274;49.874;9.154;2023-07-20T06:27:32;3.90;;;1.63;;
71464;SDS011;59274;49.874;9.154;2023-07-20T06:29:57;5.13;;;1.57;;
71464;SDS011;59274;49.874;9.154;2023-07-20T06:32:23;4.03;;;1.90;;
71464;SDS011;59274;49.874;9.154;2023-07-20T06:34:48;2.63;;;1.42;;
71464;SDS011;59274;49.874;9.154;2023-07-20T06:37:13;3.50;;;1.60;;
71464;SDS011;59274;49.874;9.154;2023-07-20T06:39:39;4.43;;;1.67;;
71464;SDS011;59274;49.874;9.154;2023-07-20T06:42:04;5.30;;;1.37;;
71464;SDS011;59274;49.874;9.154;2023-07-20T06:44:30;2.85;;;1.42;;
71464;SDS011;59274;49.874;9.154;2023-07-20T06:46:56;4.37;;;1.70;;
71464;SDS011;59274;49.874;9.154;2023-07-20T06:49:25;4.57;;;1.50;;
71464;SDS011;59274;49.874;9.154;2023-07-20T06:51:51;3.50;;;1.70;;
71464;SDS011;59274;49.874;9.154;2023-07-20T06:54:17;3.70;;;1.35;;
71464;SDS011;59274;49.874;9.154;2023-07-20T06:56:42;2.67;;;1.27;;
71464;SDS011;59274;49.874;9.154;2023-07-20T06:59:08;3.10;;;1.47;;
71464;SDS011;59274;49.874;9.154;2023-07-20T07:01:33;3.60;;;1.70;;
71464;SDS011;59274;49.874;9.154;2023-07-20T07:03:58;3.13;;;1.33;;
71464;SDS011;59274;49.874;9.154;2023-07-20T07:06:24;3.63;;;1.30;;
71464;SDS011;59274;49.874;9.154;2023-07-20T07:08:49;4.80;;;1.57;;
71464;SDS011;59274;49.874;9.154;2023-07-20T07:11:15;4.47;;;1.50;;
71464;SDS011;59274;49.874;9.154;2023-07-20T07:13:40;3.97;;;1.50;;
71464;SDS011;59274;49.874;9.154;2023-07-20T07:16:06;4.68;;;1.65;;
71464;SDS011;59274;49.874;9.154;2023-07-20T07:18:31;3.35;;;1.80;;
71464;SDS011;59274;49.874;9.154;2023-07-20T07:20:56;4.27;;;1.60;;
71464;SDS011;59274;49.874;9.154;2023-07-20T07:23:22;5.20;;;1.60;;
71464;SDS011;59274;49.874;9.154;2023-07-20T07:25:47;5.85;;;1.85;;
71464;SDS011;59274;49.874;9.154;2023-07-20T07:28:13;3.77;;;1.60;;
71464;SDS011;59274;49.874;9.154;2023-07-20T07:30:39;5.53;;;1.50;;
71464;SDS011;59274;49.874;9.154;2023-07-20T07:33:05;4.95;;;1.70;;
71464;SDS011;59274;49.874;9.154;2023-07-20T07:35:30;6.03;;;1.70;;
71464;SDS011;59274;49.874;9.154;2023-07-20T07:37:55;5.10;;;1.70;;
71464;SDS011;59274;49.874;9.154;2023-07-20T07:40:21;3.25;;;1.60;;
71464;SDS011;59274;49.874;9.154;2023-07-20T07:42:46;3.77;;;1.60;;
71464;SDS011;59274;49.874;9.154;2023-07-20T07:45:12;4.80;;;1.77;;
71464;SDS011;59274;49.874;9.154;2023-07-20T07:47:38;7.93;;;1.77;;
71464;SDS011;59274;49.874;9.154;2023-07-20T07:50:04;4.20;;;1.63;;
71464;SDS011;59274;49.874;9.154;2023-07-20T07:52:30;4.03;;;1.55;;
71464;SDS011;59274;49.874;9.154;2023-07-20T07:54:55;5.87;;;1.60;;
71464;SDS011;59274;49.874;9.154;2023-07-20T07:57:21;4.30;;;1.70;;
71464;SDS011;59274;49.874;9.154;2023-07-20T07:59:46;4.57;;;1.70;;
71464;SDS011;59274;49.874;9.154;2023-07-20T08:02:12;3.65;;;1.70;;
71464;SDS011;59274;49.874;9.154;2023-07-20T08:04:37;3.40;;;1.57;;
71464;SDS011;59274;49.874;9.154;2023-07-20T08:07:04;4.78;;;1.80;;
71464;SDS011;59274;49.874;9.154;2023-07-20T08:09:29;4.10;;;1.70;;
71464;SDS011;59274;49.874;9.154;2023-07-20T08:11:55;3.60;;;1.73;;
71464;SDS011;59274;49.874;9.154;2023-07-20T08:14:20;3.83;;;1.77;;
71464;SDS011;59274;49.874;9.154;2023-07-20T08:16:46;4.13;;;1.53;;
71464;SDS011;59274;49.874;9.154;2023-07-20T08:19:12;4.03;;;1.80;;
71464;SDS011;59274;49.874;9.154;2023-07-20T08:21:38;3.60;;;1.80;;
71464;SDS011;59274;49.874;9.154;2023-07-20T08:24:03;8.00;;;1.87;;
71464;SDS011;59274;49.874;9.154;2023-07-20T08:26:29;3.95;;;1.65;;
71464;SDS011;59274;49.874;9.154;2023-07-20T08:28:54;4.30;;;1.80;;
71464;SDS011;59274;49.874;9.154;2023-07-20T08:31:19;4.27;;;1.50;;
71464;SDS011;59274;49.874;9.154;2023-07-20T08:33:45;4.32;;;1.63;;
71464;SDS011;59274;49.874;9.154;2023-07-20T08:36:10;6.32;;;1.40;;
71464;SDS011;59274;49.874;9.154;2023-07-20T08:38:36;4.70;;;1.70;;
71464;SDS011;59274;49.874;9.154;2023-07-20T08:41:01;2.77;;;1.47;;
71464;SDS011;59274;49.874;9.154;2023-07-20T08:43:27;4.07;;;1.73;;
71464;SDS011;59274;49.874;9.154;2023-07-20T08:45:56;4.35;;;1.70;;
71464;SDS011;59274;49.874;9.154;2023-07-20T08:48:22;3.60;;;1.45;;
71464;SDS011;59274;49.874;9.154;2023-07-20T08:50:50;4.20;;;1.60;;
71464;SDS011;59274;49.874;9.154;2023-07-20T08:53:18;6.68;;;1.90;;
71464;SDS011;59274;49.874;9.154;2023-07-20T08:55:48;4.50;;;1.92;;
71464;SDS011;59274;49.874;9.154;2023-07-20T08:58:16;4.57;;;1.65;;
71464;SDS011;59274;49.874;9.154;2023-07-20T09:00:42;7.10;;;2.17;;
71464;SDS011;59274;49.874;9.154;2023-07-20T09:03:08;3.22;;;1.40;;
71464;SDS011;59274;49.874;9.154;2023-07-20T09:05:36;5.20;;;1.80;;
71464;SDS011;59274;49.874;9.154;2023-07-20T09:08:01;3.40;;;1.50;;
71464;SDS011;59274;49.874;9.154;2023-07-20T09:10:30;3.03;;;1.33;;
71464;SDS011;59274;49.874;9.154;2023-07-20T09:12:56;4.95;;;2.08;;
71464;SDS011;59274;49.874;9.154;2023-07-20T09:15:21;3.67;;;1.50;;
71464;SDS011;59274;49.874;9.154;2023-07-20T09:17:48;4.50;;;1.38;;
71464;SDS011;59274;49.874;9.154;2023-07-20T09:20:18;2.63;;;1.52;;
71464;SDS011;59274;49.874;9.154;2023-07-20T09:22:44;4.85;;;1.83;;
71464;SDS011;59274;49.874;9.154;2023-07-20T09:25:11;3.92;;;1.65;;
71464;SDS011;59274;49.874;9.154;2023-07-20T09:27:37;5.10;;;1.52;;
71464;SDS011;59274;49.874;9.154;2023-07-20T09:30:04;3.85;;;1.50;;
71464;SDS011;59274;49.874;9.154;2023-07-20T09:32:34;4.38;;;1.50;;
71464;SDS011;59274;49.874;9.154;2023-07-20T09:35:04;4.88;;;1.80;;
71464;SDS011;59274;49.874;9.154;2023-07-20T09:37:30;4.55;;;1.60;;
71464;SDS011;59274;49.874;9.154;2023-07-20T09:39:58;5.40;;;1.65;;
71464;SDS011;59274;49.874;9.154;2023-07-20T09:42:24;3.35;;;1.70;;
71464;SDS011;59274;49.874;9.154;2023-07-20T09:44:51;3.13;;;1.60;;
71464;SDS011;59274;49.874;9.154;2023-07-20T09:47:24;5.13;;;1.40;;
71464;SDS011;59274;49.874;9.154;2023-07-20T09:49:54;2.42;;;1.40;;
71464;SDS011;59274;49.874;9.154;2023-07-20T09:52:23;2.65;;;1.55;;
71464;SDS011;59274;49.874;9.154;2023-07-20T09:54:50;3.20;;;1.50;;
71464;SDS011;59274;49.874;9.154;2023-07-20T09:57:15;3.00;;;1.48;;
71464;SDS011;59274;49.874;9.154;2023-07-20T09:59:41;4.33;;;1.70;;
71464;SDS011;59274;49.874;9.154;2023-07-20T10:02:09;5.50;;;1.90;;
71464;SDS011;59274;49.874;9.154;2023-07-20T10:04:41;4.30;;;1.70;;
71464;SDS011;59274;49.874;9.154;2023-07-20T10:07:09;3.63;;;1.50;;
71464;SDS011;59274;49.874;9.154;2023-07-20T10:09:37;6.13;;;1.65;;
71464;SDS011;59274;49.874;9.154;2023-07-20T10:12:04;3.58;;;1.80;;
71464;SDS011;59274;49.874;9.154;2023-07-20T10:14:32;3.65;;;1.77;;
71464;SDS011;59274;49.874;9.154;2023-07-20T10:17:04;3.97;;;1.60;;
71464;SDS011;59274;49.874;9.154;2023-07-20T10:22:16;3.58;;;1.70;;
71464;SDS011;59274;49.874;9.154;2023-07-20T10:24:45;2.47;;;1.52;;
71464;SDS011;59274;49.874;9.154;2023-07-20T10:27:13;3.92;;;1.65;;
71464;SDS011;59274;49.874;9.154;2023-07-20T10:29:40;4.50;;;1.70;;
71464;SDS011;59274;49.874;9.154;2023-07-20T10:32:06;2.17;;;1.50;;
71464;SDS011;59274;49.874;9.154;2023-07-20T10:34:33;5.38;;;1.77;;
71464;SDS011;59274;49.874;9.154;2023-07-20T10:36:58;3.38;;;1.60;;
71464;SDS011;59274;49.874;9.154;2023-07-20T10:39:24;5.57;;;1.50;;
71464;SDS011;59274;49.874;9.154;2023-07-20T10:44:34;4.53;;;1.85;;
71464;SDS011;59274;49.874;9.154;2023-07-20T10:47:03;2.80;;;1.50;;
71464;SDS011;59274;49.874;9.154;2023-07-20T10:49:33;2.90;;;1.40;;
71464;SDS011;59274;49.874;9.154;2023-07-20T10:52:00;4.63;;;1.70;;
71464;SDS011;59274;49.874;9.154;2023-07-20T10:56:56;3.03;;;1.60;;
71464;SDS011;59274;49.874;9.154;2023-07-20T11:01:48;4.17;;;1.50;;
71464;SDS011;59274;49.874;9.154;2023-07-20T11:04:14;4.32;;;1.63;;
71464;SDS011;59274;49.874;9.154;2023-07-20T11:06:44;2.40;;;1.50;;
71464;SDS011;59274;49.874;9.154;2023-07-20T11:09:12;3.83;;;1.42;;
71464;SDS011;59274;49.874;9.154;2023-07-20T11:11:44;3.55;;;1.40;;
71464;SDS011;59274;49.874;9.154;2023-07-20T11:16:48;2.70;;;1.50;;
71464;SDS011;59274;49.874;9.154;2023-07-20T11:21:51;2.10;;;1.30;;
71464;SDS011;59274;49.874;9.154;2023-07-20T11:24:23;3.15;;;1.60;;
71464;SDS011;59274;49.874;9.154;2023-07-20T11:29:15;3.63;;;1.60;;
71464;SDS011;59274;49.874;9.154;2023-07-20T11:31:46;3.95;;;1.58;;
71464;SDS011;59274;49.874;9.154;2023-07-20T11:34:16;3.08;;;1.67;;
71464;SDS011;59274;49.874;9.154;2023-07-20T11:36:44;2.83;;;1.27;;
71464;SDS011;59274;49.874;9.154;2023-07-20T11:39:12;4.97;;;1.50;;
71464;SDS011;59274;49.874;9.154;2023-07-20T11:41:38;4.63;;;2.40;;
71464;SDS011;59274;49.874;9.154;2023-07-20T11:44:09;3.13;;;1.45;;
71464;SDS011;59274;49.874;9.154;2023-07-20T11:46:41;5.72;;;1.70;;
71464;SDS011;59274;49.874;9.154;2023-07-20T11:49:07;2.80;;;1.43;;
71464;SDS011;59274;49.874;9.154;2023-07-20T11:51:33;3.35;;;1.60;;
71464;SDS011;59274;49.874;9.154;2023-07-20T11:54:00;2.97;;;1.67;;
71464;SDS011;59274;49.874;9.154;2023-07-20T11:56:26;4.10;;;1.60;;
71464;SDS011;59274;49.874;9.154;2023-07-20T11:58:55;4.73;;;1.57;;
71464;SDS011;59274;49.874;9.154;2023-07-20T12:01:24;1.83;;;1.38;;
71464;SDS011;59274;49.874;9.154;2023-07-20T12:03:54;5.25;;;1.73;;
71464;SDS011;59274;49.874;9.154;2023-07-20T12:06:24;3.38;;;1.65;;
71464;SDS011;59274;49.874;9.154;2023-07-20T12:08:50;3.25;;;1.70;;
71464;SDS011;59274;49.874;9.154;2023-07-20T12:11:30;3.45;;;1.80;;
71464;SDS011;59274;49.874;9.154;2023-07-20T12:13:59;2.40;;;1.38;;
71464;SDS011;59274;49.874;9.154;2023-07-20T12:16:26;5.03;;;1.90;;
71464;SDS011;59274;49.874;9.154;2023-07-20T12:18:59;3.53;;;1.70;;
71464;SDS011;59274;49.874;9.154;2023-07-20T12:21:30;3.45;;;1.85;;
71464;SDS011;59274;49.874;9.154;2023-07-20T12:23:56;3.60;;;1.70;;
71464;SDS011;59274;49.874;9.154;2023-07-20T12:26:23;5.13;;;1.88;;
71464;SDS011;59274;49.874;9.154;2023-07-20T12:28:50;2.70;;;1.70;;
71464;SDS011;59274;49.874;9.154;2023-07-20T12:31:16;3.13;;;1.67;;
71464;SDS011;59274;49.874;9.154;2023-07-20T12:33:41;2.88;;;1.70;;
71464;SDS011;59274;49.874;9.154;2023-07-20T12:36:08;2.37;;;1.53;;
71464;SDS011;59274;49.874;9.154;2023-07-20T12:38:34;2.70;;;1.50;;
71464;SDS011;59274;49.874;9.154;2023-07-20T12:41:02;3.87;;;1.57;;
71464;SDS011;59274;49.874;9.154;2023-07-20T12:43:28;3.22;;;1.73;;
71464;SDS011;59274;49.874;9.154;2023-07-20T12:45:54;3.50;;;1.30;;
71464;SDS011;59274;49.874;9.154;2023-07-20T12:48:20;5.60;;;1.70;;
71464;SDS011;59274;49.874;9.154;2023-07-20T12:50:46;2.83;;;1.60;;
71464;SDS011;59274;49.874;9.154;2023-07-20T12:53:11;4.40;;;1.80;;
71464;SDS011;59274;49.874;9.154;2023-07-20T12:55:37;2.47;;;1.50;;
71464;SDS011;59274;49.874;9.154;2023-07-20T12:58:04;2.30;;;1.60;;
71464;SDS011;59274;49.874;9.154;2023-07-20T13:00:30;3.20;;;1.52;;
71464;SDS011;59274;49.874;9.154;2023-07-20T13:02:55;4.13;;;1.60;;
71464;SDS011;59274;49.874;9.154;2023-07-20T13:05:21;2.80;;;1.60;;
71464;SDS011;59274;49.874;9.154;2023-07-20T13:07:46;3.20;;;1.57;;
71464;SDS011;59274;49.874;9.154;2023-07-20T13:10:11;2.70;;;1.53;;
71464;SDS011;59274;49.874;9.154;2023-07-20T13:12:37;3.67;;;1.70;;
71464;SDS011;59274;49.874;9.154;2023-07-20T13:15:06;2.28;;;1.50;;
71464;SDS011;59274;49.874;9.154;2023-07-20T13:17:33;3.10;;;1.75;;
71464;SDS011;59274;49.874;9.154;2023-07-20T13:20:02;3.00;;;1.70;;
71464;SDS011;59274;49.874;9.154;2023-07-20T13:22:32;3.03;;;1.75;;
71464;SDS011;59274;49.874;9.154;2023-07-20T13:24:58;3.13;;;1.60;;
71464;SDS011;59274;49.874;9.154;2023-07-20T13:27:23;2.88;;;1.50;;
71464;SDS011;59274;49.874;9.154;2023-07-20T13:29:51;3.57;;;1.50;;
71464;SDS011;59274;49.874;9.154;2023-07-20T13:32:17;3.63;;;1.50;;
71464;SDS011;59274;49.874;9.154;2023-07-20T13:34:46;3.25;;;1.70;;
71464;SDS011;59274;49.874;9.154;2023-07-20T13:37:11;3.80;;;1.80;;
71464;SDS011;59274;49.874;9.154;2023-07-20T13:39:38;3.33;;;2.00;;
71464;SDS011;59274;49.874;9.154;2023-07-20T13:42:04;3.80;;;2.28;;
71464;SDS011;59274;49.874;9.154;2023-07-20T13:44:33;3.35;;;2.03;;
71464;SDS011;59274;49.874;9.154;2023-07-20T13:46:59;4.93;;;1.77;;
71464;SDS011;59274;49.874;9.154;2023-07-20T13:49:24;3.30;;;1.70;;
71464;SDS011;59274;49.874;9.154;2023-07-20T13:51:50;4.27;;;1.77;;
71464;SDS011;59274;49.874;9.154;2023-07-20T13:54:15;2.43;;;1.40;;
71464;SDS011;59274;49.874;9.154;2023-07-20T13:56:41;2.73;;;1.77;;
71464;SDS011;59274;49.874;9.154;2023-07-20T13:59:06;2.53;;;1.63;;
71464;SDS011;59274;49.874;9.154;2023-07-20T14:01:32;3.47;;;1.40;;
71464;SDS011;59274;49.874;9.154;2023-07-20T14:03:59;5.53;;;1.60;;
71464;SDS011;59274;49.874;9.154;2023-07-20T14:06:25;3.03;;;1.70;;
71464;SDS011;59274;49.874;9.154;2023-07-20T14:08:51;2.72;;;1.60;;
71464;SDS011;59274;49.874;9.154;2023-07-20T14:11:18;3.35;;;2.00;;
71464;SDS011;59274;49.874;9.154;2023-07-20T14:13:43;2.72;;;1.60;;
71464;SDS011;59274;49.874;9.154;2023-07-20T14:16:09;1.80;;;1.27;;
71464;SDS011;59274;49.874;9.154;2023-07-20T14:18:34;2.80;;;1.50;;
71464;SDS011;59274;49.874;9.154;2023-07-20T14:21:00;4.22;;;1.70;;
71464;SDS011;59274;49.874;9.154;2023-07-20T14:23:28;2.83;;;1.60;;
71464;SDS011;59274;49.874;9.154;2023-07-20T14:25:54;3.20;;;1.48;;
71464;SDS011;59274;49.874;9.154;2023-07-20T14:28:19;4.23;;;1.87;;
71464;SDS011;59274;49.874;9.154;2023-07-20T14:30:45;4.63;;;1.92;;
71464;SDS011;59274;49.874;9.154;2023-07-20T14:33:11;2.08;;;1.30;;
71464;SDS011;59274;49.874;9.154;2023-07-20T14:35:36;2.20;;;1.60;;
71464;SDS011;59274;49.874;9.154;2023-07-20T14:38:02;2.97;;;1.50;;
71464;SDS011;59274;49.874;9.154;2023-07-20T14:40:27;3.17;;;1.60;;
71464;SDS011;59274;49.874;9.154;2023-07-20T14:42:53;3.47;;;1.33;;
71464;SDS011;59274;49.874;9.154;2023-07-20T14:45:20;2.97;;;1.48;;
71464;SDS011;59274;49.874;9.154;2023-07-20T14:47:45;6.00;;;2.07;;
71464;SDS011;59274;49.874;9.154;2023-07-20T14:50:11;4.55;;;2.20;;
71464;SDS011;59274;49.874;9.154;2023-07-20T14:52:37;3.50;;;2.17;;
71464;SDS011;59274;49.874;9.154;2023-07-20T14:55:02;3.40;;;2.30;;
71464;SDS011;59274;49.874;9.154;2023-07-20T14:57:28;3.70;;;2.10;;
71464;SDS011;59274;49.874;9.154;2023-07-20T14:59:53;3.47;;;2.10;;
71464;SDS011;59274;49.874;9.154;2023-07-20T15:02:19;2.78;;;2.00;;
71464;SDS011;59274;49.874;9.154;2023-07-20T15:04:47;2.83;;;2.10;;
71464;SDS011;59274;49.874;9.154;2023-07-20T15:07:18;4.22;;;2.20;;
71464;SDS011;59274;49.874;9.154;2023-07-20T15:09:45;2.40;;;1.90;;
71464;SDS011;59274;49.874;9.154;2023-07-20T15:12:10;3.10;;;1.90;;